sensor_id;sensor_type;location;lat;lon;timestamp;P1;durP1;ratioP1;P2;durP2;ratioP2
47529;SDS011;33272;51.922;7.730;2023-04-01T00:02:07;5.73;;;3.40;;
47529;SDS011;33272;51.922;7.730;2023-04-01T00:04:35;5.03;;;2.50;;
47529;SDS011;33272;51.922;7.730;2023-04-01T00:07:02;3.37;;;2.40;;
47529;SDS011;33272;51.922;7.730;2023-04-01T00:09:29;4.60;;;2.50;;
47529;SDS011;33272;51.922;7.730;2023-04-01T00:11:56;4.63;;;2.40;;
47529;SDS011;33272;51.922;7.730;2023-04-01T00:14:24;4.53;;;2.30;;
47529;SDS011;33272;51.922;7.730;2023-04-01T00:16:51;5.67;;;2.80;;
47529;SDS011;33272;51.922;7.730;2023-04-01T00:19:18;4.33;;;2.17;;
47529;SDS011;33272;51.922;7.730;2023-04-01T00:21:45;3.80;;;2.47;;
47529;SDS011;33272;51.922;7.730;2023-04-01T00:24:14;4.73;;;2.67;;
47529;SDS011;33272;51.922;7.730;2023-04-01T00:26:41;4.13;;;2.63;;
47529;SDS011;33272;51.922;7.730;2023-04-01T00:29:09;3.90;;;2.37;;
47529;SDS011;33272;51.922;7.730;2023-04-01T00:31:37;3.03;;;2.20;;
47529;SDS011;33272;51.922;7.730;2023-04-01T00:34:05;5.97;;;2.00;;
47529;SDS011;33272;51.922;7.730;2023-04-01T00:36:32;4.53;;;2.23;;
47529;SDS011;33272;51.922;7.730;2023-04-01T00:38:59;4.13;;;2.13;;
47529;SDS011;33272;51.922;7.730;2023-04-01T00:41:26;5.40;;;2.40;;
47529;SDS011;33272;51.922;7.730;2023-04-01T00:46:44;3.10;;;1.90;;
47529;SDS011;33272;51.922;7.730;2023-04-01T00:49:11;4.27;;;2.70;;
47529;SDS011;33272;51.922;7.730;2023-04-01T00:51:39;4.83;;;2.27;;
47529;SDS011;33272;51.922;7.730;2023-04-01T00:54:08;2.87;;;2.17;;
47529;SDS011;33272;51.922;7.730;2023-04-01T00:56:37;4.93;;;2.90;;
47529;SDS011;33272;51.922;7.730;2023-04-01T00:59:10;4.10;;;2.27;;
47529;SDS011;33272;51.922;7.730;2023-04-01T01:01:40;3.23;;;2.17;;
47529;SDS011;33272;51.922;7.730;2023-04-01T01:04:20;3.17;;;2.13;;
47529;SDS011;33272;51.922;7.730;2023-04-01T01:06:50;3.00;;;2.27;;
47529;SDS011;33272;51.922;7.730;2023-04-01T01:09:38;2.50;;;1.63;;
47529;SDS011;33272;51.922;7.730;2023-04-01T01:12:14;4.00;;;1.63;;
47529;SDS011;33272;51.922;7.730;2023-04-01T01:14:52;3.03;;;2.17;;
47529;SDS011;33272;51.922;7.730;2023-04-01T01:17:32;2.90;;;1.90;;
47529;SDS011;33272;51.922;7.730;2023-04-01T01:20:27;3.17;;;1.80;;
47529;SDS011;33272;51.922;7.730;2023-04-01T01:23:36;3.00;;;1.90;;
47529;SDS011;33272;51.922;7.730;2023-04-01T01:26:47;3.77;;;1.93;;
47529;SDS011;33272;51.922;7.730;2023-04-01T01:29:39;4.00;;;2.10;;
47529;SDS011;33272;51.922;7.730;2023-04-01T01:32:48;2.13;;;1.80;;
47529;SDS011;33272;51.922;7.730;2023-04-01T01:35:41;2.53;;;2.03;;
47529;SDS011;33272;51.922;7.730;2023-04-01T01:38:13;3.13;;;1.90;;
47529;SDS011;33272;51.922;7.730;2023-04-01T01:40:43;3.37;;;2.17;;
47529;SDS011;33272;51.922;7.730;2023-04-01T01:43:18;2.33;;;2.00;;
47529;SDS011;33272;51.922;7.730;2023-04-01T01:45:50;3.50;;;2.13;;
47529;SDS011;33272;51.922;7.730;2023-04-01T01:48:21;2.63;;;2.23;;
47529;SDS011;33272;51.922;7.730;2023-04-01T01:50:51;4.33;;;2.30;;
47529;SDS011;33272;51.922;7.730;2023-04-01T01:53:18;3.77;;;2.47;;
47529;SDS011;33272;51.922;7.730;2023-04-01T01:55:47;2.53;;;2.10;;
47529;SDS011;33272;51.922;7.730;2023-04-01T01:58:16;2.97;;;2.23;;
47529;SDS011;33272;51.922;7.730;2023-04-01T02:00:49;2.87;;;1.93;;
47529;SDS011;33272;51.922;7.730;2023-04-01T02:03:19;3.13;;;2.60;;
47529;SDS011;33272;51.922;7.730;2023-04-01T02:05:49;5.00;;;2.40;;
47529;SDS011;33272;51.922;7.730;2023-04-01T02:08:22;3.60;;;2.70;;
47529;SDS011;33272;51.922;7.730;2023-04-01T02:10:55;2.73;;;2.00;;
47529;SDS011;33272;51.922;7.730;2023-04-01T02:13:27;4.20;;;2.80;;
47529;SDS011;33272;51.922;7.730;2023-04-01T02:16:01;3.73;;;2.63;;
47529;SDS011;33272;51.922;7.730;2023-04-01T02:18:33;4.03;;;2.50;;
47529;SDS011;33272;51.922;7.730;2023-04-01T02:21:04;2.87;;;2.50;;
47529;SDS011;33272;51.922;7.730;2023-04-01T02:23:33;3.00;;;2.70;;
47529;SDS011;33272;51.922;7.730;2023-04-01T02:26:02;3.00;;;2.37;;
47529;SDS011;33272;51.922;7.730;2023-04-01T02:28:31;2.90;;;2.40;;
47529;SDS011;33272;51.922;7.730;2023-04-01T02:31:02;4.33;;;2.90;;
47529;SDS011;33272;51.922;7.730;2023-04-01T02:33:30;3.37;;;2.13;;
47529;SDS011;33272;51.922;7.730;2023-04-01T02:35:57;2.70;;;2.40;;
47529;SDS011;33272;51.922;7.730;2023-04-01T02:38:26;3.83;;;2.77;;
47529;SDS011;33272;51.922;7.730;2023-04-01T02:40:56;2.83;;;2.63;;
47529;SDS011;33272;51.922;7.730;2023-04-01T02:43:25;5.90;;;3.63;;
47529;SDS011;33272;51.922;7.730;2023-04-01T02:45:52;3.53;;;2.53;;
47529;SDS011;33272;51.922;7.730;2023-04-01T02:48:19;3.33;;;2.40;;
47529;SDS011;33272;51.922;7.730;2023-04-01T02:50:46;3.50;;;2.73;;
47529;SDS011;33272;51.922;7.730;2023-04-01T02:53:14;3.03;;;2.40;;
47529;SDS011;33272;51.922;7.730;2023-04-01T02:55:42;2.87;;;2.30;;
47529;SDS011;33272;51.922;7.730;2023-04-01T02:58:10;3.03;;;2.20;;
47529;SDS011;33272;51.922;7.730;2023-04-01T03:00:37;4.03;;;2.70;;
47529;SDS011;33272;51.922;7.730;2023-04-01T03:03:04;2.93;;;2.40;;
47529;SDS011;33272;51.922;7.730;2023-04-01T03:05:31;2.70;;;2.10;;
47529;SDS011;33272;51.922;7.730;2023-04-01T03:07:58;3.20;;;2.30;;
47529;SDS011;33272;51.922;7.730;2023-04-01T03:10:25;2.77;;;2.30;;
47529;SDS011;33272;51.922;7.730;2023-04-01T03:12:53;4.20;;;2.17;;
47529;SDS011;33272;51.922;7.730;2023-04-01T03:15:20;3.07;;;2.40;;
47529;SDS011;33272;51.922;7.730;2023-04-01T03:17:47;2.50;;;1.83;;
47529;SDS011;33272;51.922;7.730;2023-04-01T03:20:15;3.23;;;2.00;;
47529;SDS011;33272;51.922;7.730;2023-04-01T03:22:42;2.67;;;2.47;;
47529;SDS011;33272;51.922;7.730;2023-04-01T03:25:09;2.63;;;1.90;;
47529;SDS011;33272;51.922;7.730;2023-04-01T03:27:36;4.03;;;2.40;;
47529;SDS011;33272;51.922;7.730;2023-04-01T03:30:06;3.97;;;2.20;;
47529;SDS011;33272;51.922;7.730;2023-04-01T03:32:34;3.50;;;2.30;;
47529;SDS011;33272;51.922;7.730;2023-04-01T03:35:01;2.50;;;2.30;;
47529;SDS011;33272;51.922;7.730;2023-04-01T03:37:29;2.53;;;2.20;;
47529;SDS011;33272;51.922;7.730;2023-04-01T03:39:57;2.30;;;2.10;;
47529;SDS011;33272;51.922;7.730;2023-04-01T03:42:24;2.50;;;2.30;;
47529;SDS011;33272;51.922;7.730;2023-04-01T03:44:50;3.20;;;2.40;;
47529;SDS011;33272;51.922;7.730;2023-04-01T03:47:19;4.00;;;2.70;;
47529;SDS011;33272;51.922;7.730;2023-04-01T03:49:46;2.30;;;2.10;;
47529;SDS011;33272;51.922;7.730;2023-04-01T03:52:13;3.07;;;2.40;;
47529;SDS011;33272;51.922;7.730;2023-04-01T03:54:40;2.97;;;2.27;;
47529;SDS011;33272;51.922;7.730;2023-04-01T03:57:07;3.20;;;2.47;;
47529;SDS011;33272;51.922;7.730;2023-04-01T03:59:34;4.00;;;2.80;;
47529;SDS011;33272;51.922;7.730;2023-04-01T04:02:01;6.53;;;3.60;;
47529;SDS011;33272;51.922;7.730;2023-04-01T04:04:30;4.13;;;3.50;;
47529;SDS011;33272;51.922;7.730;2023-04-01T04:06:57;3.70;;;3.40;;
47529;SDS011;33272;51.922;7.730;2023-04-01T04:09:24;3.17;;;2.87;;
47529;SDS011;33272;51.922;7.730;2023-04-01T04:11:51;3.93;;;2.90;;
47529;SDS011;33272;51.922;7.730;2023-04-01T04:14:18;4.43;;;2.67;;
47529;SDS011;33272;51.922;7.730;2023-04-01T04:16:45;4.80;;;2.47;;
47529;SDS011;33272;51.922;7.730;2023-04-01T04:19:12;2.73;;;2.43;;
47529;SDS011;33272;51.922;7.730;2023-04-01T04:21:40;3.00;;;2.50;;
47529;SDS011;33272;51.922;7.730;2023-04-01T04:24:08;3.93;;;2.40;;
47529;SDS011;33272;51.922;7.730;2023-04-01T04:26:35;2.40;;;2.20;;
47529;SDS011;33272;51.922;7.730;2023-04-01T04:29:02;3.43;;;2.17;;
47529;SDS011;33272;51.922;7.730;2023-04-01T04:31:29;3.67;;;2.53;;
47529;SDS011;33272;51.922;7.730;2023-04-01T04:33:58;2.90;;;2.37;;
47529;SDS011;33272;51.922;7.730;2023-04-01T04:36:26;5.27;;;3.50;;
47529;SDS011;33272;51.922;7.730;2023-04-01T04:38:54;3.40;;;2.50;;
47529;SDS011;33272;51.922;7.730;2023-04-01T04:41:23;3.13;;;2.00;;
47529;SDS011;33272;51.922;7.730;2023-04-01T04:43:51;2.33;;;2.00;;
47529;SDS011;33272;51.922;7.730;2023-04-01T04:46:20;2.10;;;1.90;;
47529;SDS011;33272;51.922;7.730;2023-04-01T04:48:48;2.50;;;1.70;;
47529;SDS011;33272;51.922;7.730;2023-04-01T04:51:15;2.00;;;1.83;;
47529;SDS011;33272;51.922;7.730;2023-04-01T04:53:44;2.10;;;1.70;;
47529;SDS011;33272;51.922;7.730;2023-04-01T04:56:17;2.40;;;1.80;;
47529;SDS011;33272;51.922;7.730;2023-04-01T04:58:44;2.70;;;1.77;;
47529;SDS011;33272;51.922;7.730;2023-04-01T05:01:12;1.43;;;1.23;;
47529;SDS011;33272;51.922;7.730;2023-04-01T05:03:41;2.33;;;1.50;;
47529;SDS011;33272;51.922;7.730;2023-04-01T05:06:09;1.63;;;1.50;;
47529;SDS011;33272;51.922;7.730;2023-04-01T05:08:39;1.73;;;1.63;;
47529;SDS011;33272;51.922;7.730;2023-04-01T05:11:09;1.90;;;1.33;;
47529;SDS011;33272;51.922;7.730;2023-04-01T05:13:40;1.60;;;1.50;;
47529;SDS011;33272;51.922;7.730;2023-04-01T05:16:07;1.87;;;1.50;;
47529;SDS011;33272;51.922;7.730;2023-04-01T05:18:35;1.50;;;1.40;;
47529;SDS011;33272;51.922;7.730;2023-04-01T05:21:02;1.60;;;1.50;;
47529;SDS011;33272;51.922;7.730;2023-04-01T05:23:30;2.30;;;2.00;;
47529;SDS011;33272;51.922;7.730;2023-04-01T05:25:58;2.70;;;1.90;;
47529;SDS011;33272;51.922;7.730;2023-04-01T05:28:25;3.27;;;2.10;;
47529;SDS011;33272;51.922;7.730;2023-04-01T05:30:53;3.03;;;2.40;;
47529;SDS011;33272;51.922;7.730;2023-04-01T05:33:20;3.13;;;2.40;;
47529;SDS011;33272;51.922;7.730;2023-04-01T05:35:47;3.80;;;2.53;;
47529;SDS011;33272;51.922;7.730;2023-04-01T05:38:14;4.20;;;2.80;;
47529;SDS011;33272;51.922;7.730;2023-04-01T05:40:41;3.03;;;2.73;;
47529;SDS011;33272;51.922;7.730;2023-04-01T05:43:08;2.80;;;2.60;;
47529;SDS011;33272;51.922;7.730;2023-04-01T05:45:35;3.43;;;3.13;;
47529;SDS011;33272;51.922;7.730;2023-04-01T05:48:04;3.60;;;2.83;;
47529;SDS011;33272;51.922;7.730;2023-04-01T05:50:31;4.30;;;3.23;;
47529;SDS011;33272;51.922;7.730;2023-04-01T05:52:58;4.10;;;3.30;;
47529;SDS011;33272;51.922;7.730;2023-04-01T05:55:25;3.73;;;3.43;;
47529;SDS011;33272;51.922;7.730;2023-04-01T05:57:52;4.07;;;3.67;;
47529;SDS011;33272;51.922;7.730;2023-04-01T06:00:19;4.57;;;3.87;;
47529;SDS011;33272;51.922;7.730;2023-04-01T06:02:46;4.30;;;3.87;;
47529;SDS011;33272;51.922;7.730;2023-04-01T06:05:16;4.10;;;3.70;;
47529;SDS011;33272;51.922;7.730;2023-04-01T06:07:45;4.37;;;3.97;;
47529;SDS011;33272;51.922;7.730;2023-04-01T06:10:14;4.60;;;4.20;;
47529;SDS011;33272;51.922;7.730;2023-04-01T06:12:55;4.97;;;3.83;;
47529;SDS011;33272;51.922;7.730;2023-04-01T06:15:36;4.90;;;4.37;;
47529;SDS011;33272;51.922;7.730;2023-04-01T06:21:18;4.50;;;4.10;;
47529;SDS011;33272;51.922;7.730;2023-04-01T06:24:22;4.80;;;4.40;;
47529;SDS011;33272;51.922;7.730;2023-04-01T06:27:03;4.33;;;3.93;;
47529;SDS011;33272;51.922;7.730;2023-04-01T06:32:37;4.47;;;4.07;;
47529;SDS011;33272;51.922;7.730;2023-04-01T06:35:24;4.87;;;4.37;;
47529;SDS011;33272;51.922;7.730;2023-04-01T06:38:22;4.07;;;3.67;;
47529;SDS011;33272;51.922;7.730;2023-04-01T06:41:16;4.47;;;3.43;;
47529;SDS011;33272;51.922;7.730;2023-04-01T06:44:28;7.27;;;4.47;;
47529;SDS011;33272;51.922;7.730;2023-04-01T06:47:07;4.40;;;3.77;;
47529;SDS011;33272;51.922;7.730;2023-04-01T06:50:00;4.50;;;3.43;;
47529;SDS011;33272;51.922;7.730;2023-04-01T06:52:40;3.50;;;3.20;;
47529;SDS011;33272;51.922;7.730;2023-04-01T06:55:21;3.67;;;3.37;;
47529;SDS011;33272;51.922;7.730;2023-04-01T06:57:59;3.17;;;2.90;;
47529;SDS011;33272;51.922;7.730;2023-04-01T07:00:31;2.93;;;2.70;;
47529;SDS011;33272;51.922;7.730;2023-04-01T07:03:04;3.07;;;2.77;;
47529;SDS011;33272;51.922;7.730;2023-04-01T07:05:41;4.20;;;2.90;;
47529;SDS011;33272;51.922;7.730;2023-04-01T07:08:09;4.00;;;3.00;;
47529;SDS011;33272;51.922;7.730;2023-04-01T07:10:42;4.23;;;3.00;;
47529;SDS011;33272;51.922;7.730;2023-04-01T07:13:14;2.50;;;2.30;;
47529;SDS011;33272;51.922;7.730;2023-04-01T07:15:50;3.30;;;3.00;;
47529;SDS011;33272;51.922;7.730;2023-04-01T07:18:28;3.40;;;3.10;;
47529;SDS011;33272;51.922;7.730;2023-04-01T07:21:01;3.13;;;2.83;;
47529;SDS011;33272;51.922;7.730;2023-04-01T07:23:29;4.13;;;3.47;;
47529;SDS011;33272;51.922;7.730;2023-04-01T07:26:06;3.60;;;2.97;;
47529;SDS011;33272;51.922;7.730;2023-04-01T07:28:42;5.33;;;4.47;;
47529;SDS011;33272;51.922;7.730;2023-04-01T07:31:13;2.93;;;2.67;;
47529;SDS011;33272;51.922;7.730;2023-04-01T07:33:51;3.30;;;3.00;;
47529;SDS011;33272;51.922;7.730;2023-04-01T07:36:28;3.20;;;2.90;;
47529;SDS011;33272;51.922;7.730;2023-04-01T07:39:04;2.70;;;2.50;;
47529;SDS011;33272;51.922;7.730;2023-04-01T07:41:45;3.40;;;3.10;;
47529;SDS011;33272;51.922;7.730;2023-04-01T07:44:24;3.00;;;2.70;;
47529;SDS011;33272;51.922;7.730;2023-04-01T07:47:07;2.97;;;2.63;;
47529;SDS011;33272;51.922;7.730;2023-04-01T07:49:50;3.70;;;3.17;;
47529;SDS011;33272;51.922;7.730;2023-04-01T07:52:29;2.70;;;2.50;;
47529;SDS011;33272;51.922;7.730;2023-04-01T07:55:06;2.93;;;2.50;;
47529;SDS011;33272;51.922;7.730;2023-04-01T07:57:43;2.83;;;2.63;;
47529;SDS011;33272;51.922;7.730;2023-04-01T08:00:20;3.10;;;2.80;;
47529;SDS011;33272;51.922;7.730;2023-04-01T08:05:51;5.23;;;3.30;;
47529;SDS011;33272;51.922;7.730;2023-04-01T08:08:26;3.13;;;2.83;;
47529;SDS011;33272;51.922;7.730;2023-04-01T08:11:10;3.33;;;2.70;;
47529;SDS011;33272;51.922;7.730;2023-04-01T08:13:51;3.30;;;3.00;;
47529;SDS011;33272;51.922;7.730;2023-04-01T08:16:30;3.23;;;2.93;;
47529;SDS011;33272;51.922;7.730;2023-04-01T08:19:09;3.03;;;2.73;;
47529;SDS011;33272;51.922;7.730;2023-04-01T08:21:52;3.37;;;3.07;;
47529;SDS011;33272;51.922;7.730;2023-04-01T08:24:25;3.23;;;2.93;;
47529;SDS011;33272;51.922;7.730;2023-04-01T08:26:59;3.87;;;3.17;;
47529;SDS011;33272;51.922;7.730;2023-04-01T08:29:34;3.73;;;2.70;;
47529;SDS011;33272;51.922;7.730;2023-04-01T08:32:09;3.13;;;2.83;;
47529;SDS011;33272;51.922;7.730;2023-04-01T08:34:42;2.80;;;2.60;;
47529;SDS011;33272;51.922;7.730;2023-04-01T08:37:17;2.60;;;2.40;;
47529;SDS011;33272;51.922;7.730;2023-04-01T08:39:51;3.10;;;2.90;;
47529;SDS011;33272;51.922;7.730;2023-04-01T08:42:44;2.57;;;2.37;;
47529;SDS011;33272;51.922;7.730;2023-04-01T08:45:31;3.00;;;2.70;;
47529;SDS011;33272;51.922;7.730;2023-04-01T08:48:19;2.80;;;2.40;;
47529;SDS011;33272;51.922;7.730;2023-04-01T08:51:26;4.20;;;2.47;;
47529;SDS011;33272;51.922;7.730;2023-04-01T08:54:56;2.87;;;2.67;;
47529;SDS011;33272;51.922;7.730;2023-04-01T08:57:45;2.70;;;2.50;;
47529;SDS011;33272;51.922;7.730;2023-04-01T09:00:30;3.73;;;2.80;;
47529;SDS011;33272;51.922;7.730;2023-04-01T09:06:29;4.47;;;3.50;;
47529;SDS011;33272;51.922;7.730;2023-04-01T09:09:13;4.50;;;3.20;;
47529;SDS011;33272;51.922;7.730;2023-04-01T09:12:26;3.77;;;3.43;;
47529;SDS011;33272;51.922;7.730;2023-04-01T09:15:29;4.10;;;3.80;;
47529;SDS011;33272;51.922;7.730;2023-04-01T09:18:20;3.50;;;3.20;;
47529;SDS011;33272;51.922;7.730;2023-04-01T09:21:13;3.87;;;3.57;;
47529;SDS011;33272;51.922;7.730;2023-04-01T09:24:06;3.70;;;3.40;;
47529;SDS011;33272;51.922;7.730;2023-04-01T09:27:03;4.40;;;4.00;;
47529;SDS011;33272;51.922;7.730;2023-04-01T09:33:15;5.00;;;4.20;;
47529;SDS011;33272;51.922;7.730;2023-04-01T09:36:12;4.63;;;4.23;;
47529;SDS011;33272;51.922;7.730;2023-04-01T09:38:56;5.17;;;4.67;;
47529;SDS011;33272;51.922;7.730;2023-04-01T09:41:32;5.17;;;4.67;;
47529;SDS011;33272;51.922;7.730;2023-04-01T09:44:09;5.37;;;4.87;;
47529;SDS011;33272;51.922;7.730;2023-04-01T09:46:50;4.97;;;4.47;;
47529;SDS011;33272;51.922;7.730;2023-04-01T09:49:45;5.00;;;4.60;;
47529;SDS011;33272;51.922;7.730;2023-04-01T09:52:29;5.87;;;5.37;;
47529;SDS011;33272;51.922;7.730;2023-04-01T09:55:06;5.30;;;4.80;;
47529;SDS011;33272;51.922;7.730;2023-04-01T09:58:12;5.50;;;5.00;;
47529;SDS011;33272;51.922;7.730;2023-04-01T10:01:42;4.83;;;4.43;;
47529;SDS011;33272;51.922;7.730;2023-04-01T10:04:39;4.60;;;4.20;;
47529;SDS011;33272;51.922;7.730;2023-04-01T10:07:51;5.93;;;4.43;;
47529;SDS011;33272;51.922;7.730;2023-04-01T10:11:12;5.40;;;4.90;;
47529;SDS011;33272;51.922;7.730;2023-04-01T10:14:18;5.00;;;4.50;;
47529;SDS011;33272;51.922;7.730;2023-04-01T10:20:23;4.93;;;4.53;;
47529;SDS011;33272;51.922;7.730;2023-04-01T10:23:22;5.17;;;4.77;;
47529;SDS011;33272;51.922;7.730;2023-04-01T10:26:28;6.17;;;5.10;;
47529;SDS011;33272;51.922;7.730;2023-04-01T10:32:31;5.27;;;4.87;;
47529;SDS011;33272;51.922;7.730;2023-04-01T10:42:11;4.30;;;3.90;;
47529;SDS011;33272;51.922;7.730;2023-04-01T10:45:19;3.43;;;3.17;;
47529;SDS011;33272;51.922;7.730;2023-04-01T10:48:23;3.10;;;2.90;;
47529;SDS011;33272;51.922;7.730;2023-04-01T10:51:47;3.60;;;3.30;;
47529;SDS011;33272;51.922;7.730;2023-04-01T10:54:46;3.87;;;3.57;;
47529;SDS011;33272;51.922;7.730;2023-04-01T10:57:27;3.10;;;2.90;;
47529;SDS011;33272;51.922;7.730;2023-04-01T11:00:30;3.63;;;3.30;;
47529;SDS011;33272;51.922;7.730;2023-04-01T11:03:26;3.90;;;3.60;;
47529;SDS011;33272;51.922;7.730;2023-04-01T11:13:47;2.70;;;2.50;;
47529;SDS011;33272;51.922;7.730;2023-04-01T11:23:12;2.23;;;2.03;;
47529;SDS011;33272;51.922;7.730;2023-04-01T11:26:00;2.70;;;2.50;;
47529;SDS011;33272;51.922;7.730;2023-04-01T11:28:50;2.60;;;2.40;;
47529;SDS011;33272;51.922;7.730;2023-04-01T11:31:45;1.90;;;1.80;;
47529;SDS011;33272;51.922;7.730;2023-04-01T11:34:32;2.43;;;2.23;;
47529;SDS011;33272;51.922;7.730;2023-04-01T11:37:22;2.80;;;2.60;;
47529;SDS011;33272;51.922;7.730;2023-04-01T11:40:08;2.80;;;2.60;;
47529;SDS011;33272;51.922;7.730;2023-04-01T11:42:49;2.60;;;2.40;;
47529;SDS011;33272;51.922;7.730;2023-04-01T11:45:27;3.03;;;2.73;;
47529;SDS011;33272;51.922;7.730;2023-04-01T11:51:06;3.20;;;2.90;;
47529;SDS011;33272;51.922;7.730;2023-04-01T11:53:47;2.90;;;2.70;;
47529;SDS011;33272;51.922;7.730;2023-04-01T11:56:34;3.13;;;2.93;;
47529;SDS011;33272;51.922;7.730;2023-04-01T11:59:32;3.60;;;3.30;;
47529;SDS011;33272;51.922;7.730;2023-04-01T12:02:42;3.40;;;3.10;;
47529;SDS011;33272;51.922;7.730;2023-04-01T12:05:28;4.40;;;3.07;;
47529;SDS011;33272;51.922;7.730;2023-04-01T12:08:24;3.50;;;3.20;;
47529;SDS011;33272;51.922;7.730;2023-04-01T12:11:05;3.40;;;3.10;;
47529;SDS011;33272;51.922;7.730;2023-04-01T12:13:45;3.70;;;3.40;;
47529;SDS011;33272;51.922;7.730;2023-04-01T12:16:38;3.10;;;2.80;;
47529;SDS011;33272;51.922;7.730;2023-04-01T12:19:17;3.17;;;2.87;;
47529;SDS011;33272;51.922;7.730;2023-04-01T12:22:02;3.00;;;2.80;;
47529;SDS011;33272;51.922;7.730;2023-04-01T12:24:51;3.63;;;3.27;;
47529;SDS011;33272;51.922;7.730;2023-04-01T12:27:30;2.73;;;2.53;;
47529;SDS011;33272;51.922;7.730;2023-04-01T12:30:17;2.60;;;2.13;;
47529;SDS011;33272;51.922;7.730;2023-04-01T12:33:04;3.00;;;2.70;;
47529;SDS011;33272;51.922;7.730;2023-04-01T12:35:55;2.67;;;2.47;;
47529;SDS011;33272;51.922;7.730;2023-04-01T12:38:35;2.80;;;2.60;;
47529;SDS011;33272;51.922;7.730;2023-04-01T12:41:14;2.60;;;2.40;;
47529;SDS011;33272;51.922;7.730;2023-04-01T12:44:13;2.57;;;2.33;;
47529;SDS011;33272;51.922;7.730;2023-04-01T12:47:09;2.97;;;2.67;;
47529;SDS011;33272;51.922;7.730;2023-04-01T12:50:11;2.60;;;2.40;;
47529;SDS011;33272;51.922;7.730;2023-04-01T12:52:55;3.00;;;2.70;;
47529;SDS011;33272;51.922;7.730;2023-04-01T12:55:46;2.60;;;2.40;;
47529;SDS011;33272;51.922;7.730;2023-04-01T13:01:43;2.20;;;2.00;;
47529;SDS011;33272;51.922;7.730;2023-04-01T13:04:37;2.47;;;2.20;;
47529;SDS011;33272;51.922;7.730;2023-04-01T13:07:50;2.40;;;2.20;;
47529;SDS011;33272;51.922;7.730;2023-04-01T13:10:44;3.43;;;2.20;;
47529;SDS011;33272;51.922;7.730;2023-04-01T13:13:51;2.60;;;2.40;;
47529;SDS011;33272;51.922;7.730;2023-04-01T13:16:51;2.60;;;2.40;;
47529;SDS011;33272;51.922;7.730;2023-04-01T13:19:24;2.47;;;2.27;;
47529;SDS011;33272;51.922;7.730;2023-04-01T13:22:00;2.50;;;2.30;;
47529;SDS011;33272;51.922;7.730;2023-04-01T13:24:37;3.47;;;2.50;;
47529;SDS011;33272;51.922;7.730;2023-04-01T13:27:14;4.20;;;3.47;;
47529;SDS011;33272;51.922;7.730;2023-04-01T13:29:50;3.33;;;2.83;;
47529;SDS011;33272;51.922;7.730;2023-04-01T13:32:32;4.20;;;3.27;;
47529;SDS011;33272;51.922;7.730;2023-04-01T13:35:20;3.63;;;3.07;;
47529;SDS011;33272;51.922;7.730;2023-04-01T13:41:06;3.13;;;2.83;;
47529;SDS011;33272;51.922;7.730;2023-04-01T13:43:47;3.13;;;2.83;;
47529;SDS011;33272;51.922;7.730;2023-04-01T13:49:22;3.27;;;2.83;;
47529;SDS011;33272;51.922;7.730;2023-04-01T13:52:29;3.23;;;2.93;;
47529;SDS011;33272;51.922;7.730;2023-04-01T13:55:22;3.70;;;3.40;;
47529;SDS011;33272;51.922;7.730;2023-04-01T13:58:20;4.40;;;3.47;;
47529;SDS011;33272;51.922;7.730;2023-04-01T14:01:13;6.20;;;4.70;;
47529;SDS011;33272;51.922;7.730;2023-04-01T14:03:53;11.90;;;10.37;;
47529;SDS011;33272;51.922;7.730;2023-04-01T14:09:45;3.30;;;3.00;;
47529;SDS011;33272;51.922;7.730;2023-04-01T14:12:31;4.00;;;3.03;;
47529;SDS011;33272;51.922;7.730;2023-04-01T14:15:09;3.23;;;2.93;;
47529;SDS011;33272;51.922;7.730;2023-04-01T14:18:12;3.27;;;2.97;;
47529;SDS011;33272;51.922;7.730;2023-04-01T14:21:11;3.30;;;2.87;;
47529;SDS011;33272;51.922;7.730;2023-04-01T14:23:50;2.90;;;2.47;;
47529;SDS011;33272;51.922;7.730;2023-04-01T14:26:50;3.33;;;2.60;;
47529;SDS011;33272;51.922;7.730;2023-04-01T14:29:37;3.27;;;2.90;;
47529;SDS011;33272;51.922;7.730;2023-04-01T14:32:15;5.70;;;4.83;;
47529;SDS011;33272;51.922;7.730;2023-04-01T14:34:55;3.80;;;3.40;;
47529;SDS011;33272;51.922;7.730;2023-04-01T14:40:56;3.13;;;2.40;;
47529;SDS011;33272;51.922;7.730;2023-04-01T14:43:48;2.50;;;2.30;;
47529;SDS011;33272;51.922;7.730;2023-04-01T14:49:47;2.60;;;2.40;;
47529;SDS011;33272;51.922;7.730;2023-04-01T14:52:21;2.50;;;2.30;;
47529;SDS011;33272;51.922;7.730;2023-04-01T14:54:53;2.70;;;2.50;;
47529;SDS011;33272;51.922;7.730;2023-04-01T14:57:23;3.37;;;3.07;;
47529;SDS011;33272;51.922;7.730;2023-04-01T14:59:54;3.13;;;2.83;;
47529;SDS011;33272;51.922;7.730;2023-04-01T15:02:41;3.50;;;3.03;;
47529;SDS011;33272;51.922;7.730;2023-04-01T15:05:23;3.43;;;2.63;;
47529;SDS011;33272;51.922;7.730;2023-04-01T15:08:14;2.93;;;2.63;;
47529;SDS011;33272;51.922;7.730;2023-04-01T15:10:52;3.03;;;2.77;;
47529;SDS011;33272;51.922;7.730;2023-04-01T15:17:01;3.00;;;2.70;;
47529;SDS011;33272;51.922;7.730;2023-04-01T15:19:54;10.27;;;7.77;;
47529;SDS011;33272;51.922;7.730;2023-04-01T15:22:44;9.47;;;6.97;;
47529;SDS011;33272;51.922;7.730;2023-04-01T15:25:41;5.23;;;3.90;;
47529;SDS011;33272;51.922;7.730;2023-04-01T15:28:22;6.87;;;5.30;;
47529;SDS011;33272;51.922;7.730;2023-04-01T15:31:00;1.77;;;1.67;;
47529;SDS011;33272;51.922;7.730;2023-04-01T15:33:41;1.73;;;1.57;;
47529;SDS011;33272;51.922;7.730;2023-04-01T15:36:28;2.20;;;1.80;;
47529;SDS011;33272;51.922;7.730;2023-04-01T15:39:09;5.00;;;4.20;;
47529;SDS011;33272;51.922;7.730;2023-04-01T15:41:43;6.43;;;5.47;;
47529;SDS011;33272;51.922;7.730;2023-04-01T15:44:28;5.03;;;4.43;;
47529;SDS011;33272;51.922;7.730;2023-04-01T15:47:25;2.80;;;2.50;;
47529;SDS011;33272;51.922;7.730;2023-04-01T15:50:05;2.83;;;2.63;;
47529;SDS011;33272;51.922;7.730;2023-04-01T15:53:17;1.87;;;1.70;;
47529;SDS011;33272;51.922;7.730;2023-04-01T15:56:10;1.93;;;1.83;;
47529;SDS011;33272;51.922;7.730;2023-04-01T15:58:54;1.87;;;1.67;;
47529;SDS011;33272;51.922;7.730;2023-04-01T16:01:38;1.63;;;1.53;;
47529;SDS011;33272;51.922;7.730;2023-04-01T16:04:29;1.60;;;1.50;;
47529;SDS011;33272;51.922;7.730;2023-04-01T16:07:23;2.43;;;1.90;;
47529;SDS011;33272;51.922;7.730;2023-04-01T16:13:46;4.80;;;3.30;;
47529;SDS011;33272;51.922;7.730;2023-04-01T16:16:28;3.33;;;2.43;;
47529;SDS011;33272;51.922;7.730;2023-04-01T16:19:13;2.70;;;2.10;;
47529;SDS011;33272;51.922;7.730;2023-04-01T16:22:08;2.33;;;2.03;;
47529;SDS011;33272;51.922;7.730;2023-04-01T16:24:41;2.03;;;1.47;;
47529;SDS011;33272;51.922;7.730;2023-04-01T16:27:16;2.63;;;1.70;;
47529;SDS011;33272;51.922;7.730;2023-04-01T16:29:51;1.93;;;1.70;;
47529;SDS011;33272;51.922;7.730;2023-04-01T16:32:31;2.80;;;2.07;;
47529;SDS011;33272;51.922;7.730;2023-04-01T16:35:16;3.60;;;2.50;;
47529;SDS011;33272;51.922;7.730;2023-04-01T16:37:58;3.00;;;2.70;;
47529;SDS011;33272;51.922;7.730;2023-04-01T16:40:37;4.17;;;3.20;;
47529;SDS011;33272;51.922;7.730;2023-04-01T16:43:16;3.53;;;3.23;;
47529;SDS011;33272;51.922;7.730;2023-04-01T16:45:53;4.43;;;4.03;;
47529;SDS011;33272;51.922;7.730;2023-04-01T16:48:45;3.67;;;3.37;;
47529;SDS011;33272;51.922;7.730;2023-04-01T16:51:25;4.13;;;3.73;;
47529;SDS011;33272;51.922;7.730;2023-04-01T16:54:03;4.37;;;3.97;;
47529;SDS011;33272;51.922;7.730;2023-04-01T16:56:38;2.93;;;2.63;;
47529;SDS011;33272;51.922;7.730;2023-04-01T16:59:15;3.13;;;2.83;;
47529;SDS011;33272;51.922;7.730;2023-04-01T17:01:52;3.50;;;3.10;;
47529;SDS011;33272;51.922;7.730;2023-04-01T17:04:24;2.33;;;2.13;;
47529;SDS011;33272;51.922;7.730;2023-04-01T17:07:02;3.20;;;2.00;;
47529;SDS011;33272;51.922;7.730;2023-04-01T17:09:45;1.60;;;1.50;;
47529;SDS011;33272;51.922;7.730;2023-04-01T17:12:32;3.30;;;1.63;;
47529;SDS011;33272;51.922;7.730;2023-04-01T17:15:10;2.70;;;1.70;;
47529;SDS011;33272;51.922;7.730;2023-04-01T17:17:49;1.90;;;1.70;;